sensor_id;sensor_type;location;lat;lon;timestamp;P1;durP1;ratioP1;P2;durP2;ratioP2
52468;SDS011;38381;53.688;10.776;2023-02-27T00:03:29;5.27;;;3.90;;
52468;SDS011;38381;53.688;10.776;2023-02-27T00:08:29;4.07;;;3.67;;
52468;SDS011;38381;53.688;10.776;2023-02-27T00:13:31;3.97;;;3.67;;
52468;SDS011;38381;53.688;10.776;2023-02-27T00:18:32;4.22;;;3.92;;
52468;SDS011;38381;53.688;10.776;2023-02-27T00:23:32;5.18;;;4.68;;
52468;SDS011;38381;53.688;10.776;2023-02-27T00:28:33;3.97;;;3.67;;
52468;SDS011;38381;53.688;10.776;2023-02-27T00:33:33;4.47;;;4.07;;
52468;SDS011;38381;53.688;10.776;2023-02-27T00:38:34;5.32;;;3.85;;
52468;SDS011;38381;53.688;10.776;2023-02-27T00:43:34;4.15;;;3.50;;
52468;SDS011;38381;53.688;10.776;2023-02-27T00:48:35;4.18;;;3.80;;
52468;SDS011;38381;53.688;10.776;2023-02-27T00:53:35;4.28;;;3.88;;
52468;SDS011;38381;53.688;10.776;2023-02-27T00:58:36;4.13;;;3.72;;
52468;SDS011;38381;53.688;10.776;2023-02-27T01:03:36;4.13;;;3.75;;
52468;SDS011;38381;53.688;10.776;2023-02-27T01:08:36;5.28;;;4.57;;
52468;SDS011;38381;53.688;10.776;2023-02-27T01:13:37;6.32;;;4.05;;
52468;SDS011;38381;53.688;10.776;2023-02-27T01:18:37;4.97;;;4.03;;
52468;SDS011;38381;53.688;10.776;2023-02-27T01:23:38;5.50;;;4.00;;
52468;SDS011;38381;53.688;10.776;2023-02-27T01:28:38;4.20;;;3.83;;
52468;SDS011;38381;53.688;10.776;2023-02-27T01:33:39;6.75;;;4.18;;
52468;SDS011;38381;53.688;10.776;2023-02-27T01:38:39;4.53;;;4.10;;
52468;SDS011;38381;53.688;10.776;2023-02-27T01:43:59;5.47;;;3.90;;
52468;SDS011;38381;53.688;10.776;2023-02-27T01:54:21;5.75;;;5.20;;
52468;SDS011;38381;53.688;10.776;2023-02-27T01:59:24;4.50;;;3.72;;
52468;SDS011;38381;53.688;10.776;2023-02-27T02:04:26;4.85;;;4.43;;
52468;SDS011;38381;53.688;10.776;2023-02-27T02:09:29;5.25;;;4.53;;
52468;SDS011;38381;53.688;10.776;2023-02-27T02:14:33;4.75;;;4.35;;
52468;SDS011;38381;53.688;10.776;2023-02-27T02:41:24;4.55;;;4.15;;
52468;SDS011;38381;53.688;10.776;2023-02-27T02:46:46;4.57;;;4.18;;
52468;SDS011;38381;53.688;10.776;2023-02-27T02:57:15;4.25;;;3.85;;
52468;SDS011;38381;53.688;10.776;2023-02-27T03:02:24;5.97;;;4.18;;
52468;SDS011;38381;53.688;10.776;2023-02-27T03:07:31;4.68;;;4.28;;
52468;SDS011;38381;53.688;10.776;2023-02-27T03:12:33;4.45;;;4.15;;
52468;SDS011;38381;53.688;10.776;2023-02-27T03:17:39;4.85;;;4.20;;
52468;SDS011;38381;53.688;10.776;2023-02-27T03:22:47;4.22;;;3.92;;
52468;SDS011;38381;53.688;10.776;2023-02-27T03:27:52;4.55;;;4.15;;
52468;SDS011;38381;53.688;10.776;2023-02-27T03:33:11;5.38;;;4.88;;
52468;SDS011;38381;53.688;10.776;2023-02-27T03:38:22;6.55;;;5.03;;
52468;SDS011;38381;53.688;10.776;2023-02-27T03:48:47;4.70;;;4.20;;
52468;SDS011;38381;53.688;10.776;2023-02-27T03:53:51;5.10;;;4.55;;
52468;SDS011;38381;53.688;10.776;2023-02-27T03:58:59;6.00;;;4.20;;
52468;SDS011;38381;53.688;10.776;2023-02-27T04:04:01;4.50;;;4.10;;
52468;SDS011;38381;53.688;10.776;2023-02-27T04:09:07;5.78;;;4.82;;
52468;SDS011;38381;53.688;10.776;2023-02-27T04:14:20;6.03;;;4.75;;
52468;SDS011;38381;53.688;10.776;2023-02-27T04:25:38;4.30;;;3.78;;
52468;SDS011;38381;53.688;10.776;2023-02-27T04:40:55;5.38;;;4.88;;
52468;SDS011;38381;53.688;10.776;2023-02-27T04:45:59;7.47;;;6.78;;
52468;SDS011;38381;53.688;10.776;2023-02-27T04:51:12;5.00;;;4.50;;
52468;SDS011;38381;53.688;10.776;2023-02-27T04:56:54;5.78;;;5.22;;
52468;SDS011;38381;53.688;10.776;2023-02-27T05:01:55;5.70;;;4.88;;
52468;SDS011;38381;53.688;10.776;2023-02-27T05:06:59;6.43;;;5.82;;
52468;SDS011;38381;53.688;10.776;2023-02-27T05:12:05;6.97;;;6.35;;
52468;SDS011;38381;53.688;10.776;2023-02-27T05:22:57;6.43;;;5.82;;
52468;SDS011;38381;53.688;10.776;2023-02-27T05:33:42;7.88;;;5.70;;
52468;SDS011;38381;53.688;10.776;2023-02-27T05:38:52;7.35;;;6.65;;
52468;SDS011;38381;53.688;10.776;2023-02-27T05:44:05;6.10;;;5.47;;
52468;SDS011;38381;53.688;10.776;2023-02-27T05:49:12;5.95;;;5.35;;
52468;SDS011;38381;53.688;10.776;2023-02-27T05:54:32;7.03;;;6.43;;
52468;SDS011;38381;53.688;10.776;2023-02-27T05:59:51;6.78;;;6.03;;
52468;SDS011;38381;53.688;10.776;2023-02-27T06:05:29;7.70;;;7.00;;
52468;SDS011;38381;53.688;10.776;2023-02-27T06:10:30;7.72;;;6.82;;
52468;SDS011;38381;53.688;10.776;2023-02-27T06:15:31;7.50;;;6.82;;
52468;SDS011;38381;53.688;10.776;2023-02-27T06:20:31;7.72;;;6.60;;
52468;SDS011;38381;53.688;10.776;2023-02-27T06:25:32;9.43;;;6.93;;
52468;SDS011;38381;53.688;10.776;2023-02-27T06:30:33;12.20;;;9.68;;
52468;SDS011;38381;53.688;10.776;2023-02-27T06:35:33;9.10;;;8.20;;
52468;SDS011;38381;53.688;10.776;2023-02-27T06:40:33;8.43;;;7.45;;
52468;SDS011;38381;53.688;10.776;2023-02-27T06:45:34;7.38;;;6.55;;
52468;SDS011;38381;53.688;10.776;2023-02-27T06:50:34;8.50;;;6.57;;
52468;SDS011;38381;53.688;10.776;2023-02-27T06:55:35;8.13;;;7.15;;
52468;SDS011;38381;53.688;10.776;2023-02-27T07:00:36;7.68;;;6.90;;
52468;SDS011;38381;53.688;10.776;2023-02-27T07:05:36;7.90;;;7.15;;
52468;SDS011;38381;53.688;10.776;2023-02-27T07:10:36;7.35;;;6.47;;
52468;SDS011;38381;53.688;10.776;2023-02-27T07:15:39;10.13;;;6.75;;
52468;SDS011;38381;53.688;10.776;2023-02-27T07:20:39;8.63;;;6.82;;
52468;SDS011;38381;53.688;10.776;2023-02-27T07:25:39;8.63;;;6.63;;
52468;SDS011;38381;53.688;10.776;2023-02-27T07:30:40;7.00;;;6.45;;
52468;SDS011;38381;53.688;10.776;2023-02-27T07:35:41;7.90;;;7.07;;
52468;SDS011;38381;53.688;10.776;2023-02-27T07:40:41;38.67;;;25.73;;
52468;SDS011;38381;53.688;10.776;2023-02-27T07:45:42;13.57;;;11.77;;
52468;SDS011;38381;53.688;10.776;2023-02-27T07:50:42;14.68;;;13.20;;
52468;SDS011;38381;53.688;10.776;2023-02-27T07:55:42;13.52;;;12.18;;
52468;SDS011;38381;53.688;10.776;2023-02-27T08:00:43;12.05;;;10.77;;
52468;SDS011;38381;53.688;10.776;2023-02-27T08:05:43;13.85;;;9.85;;
52468;SDS011;38381;53.688;10.776;2023-02-27T08:10:43;9.32;;;8.13;;
52468;SDS011;38381;53.688;10.776;2023-02-27T08:15:44;8.02;;;6.95;;
52468;SDS011;38381;53.688;10.776;2023-02-27T08:20:45;9.43;;;7.05;;
52468;SDS011;38381;53.688;10.776;2023-02-27T08:25:46;10.05;;;8.23;;
52468;SDS011;38381;53.688;10.776;2023-02-27T08:30:47;9.13;;;7.75;;
52468;SDS011;38381;53.688;10.776;2023-02-27T08:35:47;10.00;;;7.70;;
52468;SDS011;38381;53.688;10.776;2023-02-27T08:40:51;9.93;;;7.07;;
52468;SDS011;38381;53.688;10.776;2023-02-27T08:45:54;8.32;;;7.50;;
52468;SDS011;38381;53.688;10.776;2023-02-27T08:50:55;7.43;;;6.72;;
52468;SDS011;38381;53.688;10.776;2023-02-27T08:55:55;8.38;;;7.47;;
52468;SDS011;38381;53.688;10.776;2023-02-27T09:00:55;18.02;;;9.95;;
52468;SDS011;38381;53.688;10.776;2023-02-27T09:05:56;10.55;;;6.40;;
52468;SDS011;38381;53.688;10.776;2023-02-27T09:10:56;12.85;;;6.30;;
52468;SDS011;38381;53.688;10.776;2023-02-27T09:15:57;8.65;;;5.80;;
52468;SDS011;38381;53.688;10.776;2023-02-27T09:20:57;8.40;;;6.05;;
52468;SDS011;38381;53.688;10.776;2023-02-27T09:25:58;9.93;;;5.95;;
52468;SDS011;38381;53.688;10.776;2023-02-27T09:31:05;8.60;;;6.30;;
52468;SDS011;38381;53.688;10.776;2023-02-27T09:36:06;8.27;;;5.10;;
52468;SDS011;38381;53.688;10.776;2023-02-27T09:41:19;7.80;;;5.07;;
52468;SDS011;38381;53.688;10.776;2023-02-27T09:46:44;6.97;;;4.03;;
52468;SDS011;38381;53.688;10.776;2023-02-27T09:51:45;8.80;;;5.78;;
52468;SDS011;38381;53.688;10.776;2023-02-27T09:56:51;6.78;;;4.20;;
52468;SDS011;38381;53.688;10.776;2023-02-27T10:01:57;6.95;;;3.45;;
52468;SDS011;38381;53.688;10.776;2023-02-27T10:17:47;3.95;;;2.95;;
52468;SDS011;38381;53.688;10.776;2023-02-27T10:22:56;6.00;;;3.65;;
52468;SDS011;38381;53.688;10.776;2023-02-27T10:28:00;8.07;;;3.25;;
52468;SDS011;38381;53.688;10.776;2023-02-27T10:33:12;3.20;;;2.60;;
52468;SDS011;38381;53.688;10.776;2023-02-27T10:43:28;7.60;;;2.72;;
52468;SDS011;38381;53.688;10.776;2023-02-27T10:48:30;5.90;;;2.90;;
52468;SDS011;38381;53.688;10.776;2023-02-27T10:53:31;6.43;;;2.65;;
52468;SDS011;38381;53.688;10.776;2023-02-27T10:58:35;4.88;;;2.63;;
52468;SDS011;38381;53.688;10.776;2023-02-27T11:03:40;5.68;;;2.88;;
52468;SDS011;38381;53.688;10.776;2023-02-27T11:08:42;4.60;;;3.10;;
52468;SDS011;38381;53.688;10.776;2023-02-27T11:13:43;4.72;;;3.08;;
52468;SDS011;38381;53.688;10.776;2023-02-27T11:18:45;4.72;;;2.47;;
52468;SDS011;38381;53.688;10.776;2023-02-27T11:29:17;3.95;;;2.33;;
52468;SDS011;38381;53.688;10.776;2023-02-27T11:34:20;6.28;;;4.28;;
52468;SDS011;38381;53.688;10.776;2023-02-27T11:44:30;2.95;;;2.45;;
52468;SDS011;38381;53.688;10.776;2023-02-27T11:49:37;4.30;;;2.13;;
52468;SDS011;38381;53.688;10.776;2023-02-27T11:55:05;4.00;;;2.40;;
52468;SDS011;38381;53.688;10.776;2023-02-27T12:05:20;6.60;;;3.13;;
52468;SDS011;38381;53.688;10.776;2023-02-27T12:10:27;3.72;;;2.35;;
52468;SDS011;38381;53.688;10.776;2023-02-27T12:21:12;3.33;;;2.47;;
52468;SDS011;38381;53.688;10.776;2023-02-27T12:36:34;4.18;;;2.80;;
52468;SDS011;38381;53.688;10.776;2023-02-27T12:46:57;2.25;;;2.05;;
52468;SDS011;38381;53.688;10.776;2023-02-27T12:52:17;3.53;;;2.13;;
52468;SDS011;38381;53.688;10.776;2023-02-27T12:57:28;2.92;;;2.25;;
52468;SDS011;38381;53.688;10.776;2023-02-27T13:08:28;2.75;;;2.17;;
52468;SDS011;38381;53.688;10.776;2023-02-27T13:13:15;2.60;;;2.22;;
52468;SDS011;38381;53.688;10.776;2023-02-27T13:29:01;5.47;;;3.60;;
52468;SDS011;38381;53.688;10.776;2023-02-27T13:34:07;5.00;;;2.85;;
52468;SDS011;38381;53.688;10.776;2023-02-27T13:39:39;3.42;;;2.00;;
52468;SDS011;38381;53.688;10.776;2023-02-27T13:45:03;4.13;;;2.00;;
52468;SDS011;38381;53.688;10.776;2023-02-27T13:55:28;2.03;;;1.83;;
52468;SDS011;38381;53.688;10.776;2023-02-27T14:00:34;2.97;;;1.75;;
52468;SDS011;38381;53.688;10.776;2023-02-27T14:10:39;3.35;;;1.85;;
52468;SDS011;38381;53.688;10.776;2023-02-27T14:15:53;3.60;;;1.92;;
52468;SDS011;38381;53.688;10.776;2023-02-27T14:20:55;2.47;;;1.88;;
52468;SDS011;38381;53.688;10.776;2023-02-27T14:26:03;2.53;;;1.95;;
52468;SDS011;38381;53.688;10.776;2023-02-27T14:31:22;3.13;;;2.42;;
52468;SDS011;38381;53.688;10.776;2023-02-27T14:36:27;4.28;;;2.08;;
52468;SDS011;38381;53.688;10.776;2023-02-27T14:41:41;3.00;;;2.65;;
52468;SDS011;38381;53.688;10.776;2023-02-27T14:46:48;2.95;;;1.70;;
52468;SDS011;38381;53.688;10.776;2023-02-27T14:51:53;2.03;;;1.83;;
52468;SDS011;38381;53.688;10.776;2023-02-27T14:56:59;4.95;;;2.92;;
52468;SDS011;38381;53.688;10.776;2023-02-27T15:02:01;2.60;;;2.40;;
52468;SDS011;38381;53.688;10.776;2023-02-27T15:07:03;2.33;;;1.85;;
52468;SDS011;38381;53.688;10.776;2023-02-27T15:12:03;3.33;;;1.90;;
52468;SDS011;38381;53.688;10.776;2023-02-27T15:17:14;3.20;;;2.38;;
52468;SDS011;38381;53.688;10.776;2023-02-27T15:22:16;4.35;;;2.75;;
52468;SDS011;38381;53.688;10.776;2023-02-27T15:27:30;4.03;;;3.13;;
52468;SDS011;38381;53.688;10.776;2023-02-27T15:32:33;2.50;;;2.00;;
52468;SDS011;38381;53.688;10.776;2023-02-27T15:37:37;5.00;;;2.10;;
52468;SDS011;38381;53.688;10.776;2023-02-27T15:42:38;2.47;;;1.73;;
52468;SDS011;38381;53.688;10.776;2023-02-27T15:47:38;4.13;;;2.05;;
52468;SDS011;38381;53.688;10.776;2023-02-27T15:52:40;2.42;;;2.22;;
52468;SDS011;38381;53.688;10.776;2023-02-27T15:57:59;2.75;;;2.30;;
52468;SDS011;38381;53.688;10.776;2023-02-27T16:03:00;2.10;;;1.63;;
52468;SDS011;38381;53.688;10.776;2023-02-27T16:08:01;2.45;;;1.80;;
52468;SDS011;38381;53.688;10.776;2023-02-27T16:13:19;1.97;;;1.73;;
52468;SDS011;38381;53.688;10.776;2023-02-27T16:18:35;2.83;;;2.10;;
52468;SDS011;38381;53.688;10.776;2023-02-27T16:23:43;3.90;;;2.33;;
52468;SDS011;38381;53.688;10.776;2023-02-27T16:29:04;2.00;;;1.80;;
52468;SDS011;38381;53.688;10.776;2023-02-27T16:34:18;3.13;;;2.00;;
52468;SDS011;38381;53.688;10.776;2023-02-27T16:39:43;2.40;;;2.05;;
52468;SDS011;38381;53.688;10.776;2023-02-27T16:44:43;3.17;;;2.13;;
52468;SDS011;38381;53.688;10.776;2023-02-27T16:49:44;2.25;;;1.88;;
52468;SDS011;38381;53.688;10.776;2023-02-27T16:54:46;3.67;;;2.40;;
52468;SDS011;38381;53.688;10.776;2023-02-27T16:59:46;3.55;;;2.70;;
52468;SDS011;38381;53.688;10.776;2023-02-27T17:04:47;3.25;;;2.47;;
52468;SDS011;38381;53.688;10.776;2023-02-27T17:09:48;5.77;;;5.13;;
52468;SDS011;38381;53.688;10.776;2023-02-27T17:14:50;6.50;;;4.50;;
52468;SDS011;38381;53.688;10.776;2023-02-27T17:19:50;6.65;;;3.88;;
52468;SDS011;38381;53.688;10.776;2023-02-27T17:24:51;3.10;;;2.78;;
52468;SDS011;38381;53.688;10.776;2023-02-27T17:29:51;4.18;;;2.72;;
52468;SDS011;38381;53.688;10.776;2023-02-27T17:34:52;2.67;;;2.47;;
52468;SDS011;38381;53.688;10.776;2023-02-27T17:39:53;3.22;;;2.58;;
52468;SDS011;38381;53.688;10.776;2023-02-27T17:44:54;4.72;;;2.95;;
52468;SDS011;38381;53.688;10.776;2023-02-27T17:49:54;3.88;;;3.00;;
52468;SDS011;38381;53.688;10.776;2023-02-27T17:54:55;5.43;;;3.60;;
52468;SDS011;38381;53.688;10.776;2023-02-27T17:59:56;3.47;;;3.17;;
52468;SDS011;38381;53.688;10.776;2023-02-27T18:04:56;3.58;;;3.28;;
52468;SDS011;38381;53.688;10.776;2023-02-27T18:09:57;3.80;;;3.40;;
52468;SDS011;38381;53.688;10.776;2023-02-27T18:14:57;6.03;;;4.25;;
52468;SDS011;38381;53.688;10.776;2023-02-27T18:19:58;4.90;;;4.28;;
52468;SDS011;38381;53.688;10.776;2023-02-27T18:24:59;4.95;;;4.40;;
52468;SDS011;38381;53.688;10.776;2023-02-27T18:30:00;8.10;;;5.78;;
52468;SDS011;38381;53.688;10.776;2023-02-27T18:35:01;5.40;;;3.70;;
52468;SDS011;38381;53.688;10.776;2023-02-27T18:40:02;11.82;;;3.58;;
52468;SDS011;38381;53.688;10.776;2023-02-27T18:45:05;5.85;;;5.07;;
52468;SDS011;38381;53.688;10.776;2023-02-27T18:50:05;7.85;;;6.63;;
52468;SDS011;38381;53.688;10.776;2023-02-27T18:55:06;4.38;;;3.53;;
52468;SDS011;38381;53.688;10.776;2023-02-27T19:00:07;4.78;;;3.40;;
52468;SDS011;38381;53.688;10.776;2023-02-27T19:05:09;3.85;;;3.10;;
52468;SDS011;38381;53.688;10.776;2023-02-27T19:10:10;3.93;;;3.10;;
52468;SDS011;38381;53.688;10.776;2023-02-27T19:15:11;12.38;;;6.90;;
52468;SDS011;38381;53.688;10.776;2023-02-27T19:20:12;10.32;;;8.20;;
52468;SDS011;38381;53.688;10.776;2023-02-27T19:25:15;7.60;;;6.88;;
52468;SDS011;38381;53.688;10.776;2023-02-27T19:30:15;15.70;;;10.98;;
52468;SDS011;38381;53.688;10.776;2023-02-27T19:35:16;5.70;;;5.05;;
52468;SDS011;38381;53.688;10.776;2023-02-27T19:40:20;4.03;;;3.33;;
52468;SDS011;38381;53.688;10.776;2023-02-27T19:45:21;3.17;;;2.88;;
52468;SDS011;38381;53.688;10.776;2023-02-27T19:50:22;2.72;;;2.33;;
52468;SDS011;38381;53.688;10.776;2023-02-27T19:55:23;4.03;;;3.63;;
52468;SDS011;38381;53.688;10.776;2023-02-27T20:00:24;4.30;;;2.67;;
52468;SDS011;38381;53.688;10.776;2023-02-27T20:05:25;3.72;;;3.00;;
52468;SDS011;38381;53.688;10.776;2023-02-27T20:10:25;3.50;;;2.75;;
52468;SDS011;38381;53.688;10.776;2023-02-27T20:15:25;4.07;;;2.72;;
52468;SDS011;38381;53.688;10.776;2023-02-27T20:20:26;3.28;;;2.97;;
52468;SDS011;38381;53.688;10.776;2023-02-27T20:25:27;3.20;;;2.95;;
52468;SDS011;38381;53.688;10.776;2023-02-27T20:30:28;2.83;;;2.63;;
52468;SDS011;38381;53.688;10.776;2023-02-27T20:35:28;2.97;;;2.78;;
52468;SDS011;38381;53.688;10.776;2023-02-27T20:40:29;3.90;;;2.45;;
52468;SDS011;38381;53.688;10.776;2023-02-27T20:45:29;2.83;;;2.47;;
52468;SDS011;38381;53.688;10.776;2023-02-27T20:50:30;4.72;;;2.70;;
52468;SDS011;38381;53.688;10.776;2023-02-27T20:55:30;4.20;;;2.40;;
52468;SDS011;38381;53.688;10.776;2023-02-27T21:00:31;4.07;;;2.42;;
52468;SDS011;38381;53.688;10.776;2023-02-27T21:05:31;3.33;;;2.75;;
52468;SDS011;38381;53.688;10.776;2023-02-27T21:10:32;5.90;;;3.60;;
52468;SDS011;38381;53.688;10.776;2023-02-27T21:15:36;2.80;;;2.53;;
52468;SDS011;38381;53.688;10.776;2023-02-27T21:20:41;9.02;;;4.40;;
52468;SDS011;38381;53.688;10.776;2023-02-27T21:25:43;6.22;;;4.22;;
52468;SDS011;38381;53.688;10.776;2023-02-27T21:30:43;4.90;;;3.75;;
52468;SDS011;38381;53.688;10.776;2023-02-27T21:35:44;3.70;;;3.33;;
52468;SDS011;38381;53.688;10.776;2023-02-27T21:40:45;5.43;;;3.72;;
52468;SDS011;38381;53.688;10.776;2023-02-27T21:45:46;4.32;;;3.92;;
52468;SDS011;38381;53.688;10.776;2023-02-27T21:50:50;4.32;;;3.83;;
52468;SDS011;38381;53.688;10.776;2023-02-27T21:56:06;4.05;;;3.70;;
52468;SDS011;38381;53.688;10.776;2023-02-27T22:01:13;4.07;;;3.70;;
52468;SDS011;38381;53.688;10.776;2023-02-27T22:06:16;4.95;;;4.45;;
52468;SDS011;38381;53.688;10.776;2023-02-27T22:16:19;6.20;;;3.72;;
52468;SDS011;38381;53.688;10.776;2023-02-27T22:21:20;5.05;;;3.90;;
52468;SDS011;38381;53.688;10.776;2023-02-27T22:26:24;3.40;;;3.03;;
52468;SDS011;38381;53.688;10.776;2023-02-27T22:31:28;3.35;;;3.05;;
52468;SDS011;38381;53.688;10.776;2023-02-27T22:36:30;3.42;;;3.13;;
52468;SDS011;38381;53.688;10.776;2023-02-27T22:41:36;5.90;;;5.25;;
52468;SDS011;38381;53.688;10.776;2023-02-27T22:46:39;7.72;;;5.32;;
52468;SDS011;38381;53.688;10.776;2023-02-27T22:51:42;6.43;;;3.47;;
52468;SDS011;38381;53.688;10.776;2023-02-27T22:56:43;5.03;;;3.42;;
52468;SDS011;38381;53.688;10.776;2023-02-27T23:01:43;4.68;;;3.70;;
52468;SDS011;38381;53.688;10.776;2023-02-27T23:06:44;5.90;;;3.00;;
52468;SDS011;38381;53.688;10.776;2023-02-27T23:11:44;3.17;;;2.70;;
52468;SDS011;38381;53.688;10.776;2023-02-27T23:16:45;3.45;;;2.72;;
52468;SDS011;38381;53.688;10.776;2023-02-27T23:21:46;4.18;;;3.53;;
52468;SDS011;38381;53.688;10.776;2023-02-27T23:26:47;4.13;;;3.72;;
52468;SDS011;38381;53.688;10.776;2023-02-27T23:31:49;4.25;;;3.30;;
52468;SDS011;38381;53.688;10.776;2023-02-27T23:36:50;5.00;;;3.22;;
52468;SDS011;38381;53.688;10.776;2023-02-27T23:41:50;4.15;;;3.75;;
52468;SDS011;38381;53.688;10.776;2023-02-27T23:46:50;5.32;;;3.80;;
52468;SDS011;38381;53.688;10.776;2023-02-27T23:51:51;3.38;;;2.95;;
52468;SDS011;38381;53.688;10.776;2023-02-27T23:56:52;4.63;;;3.55;;
